Latest Weather Observations for Scottsdale

IDT60801

Issued at 8:01 pm EST Saturday 5 September 2015 (issued every 30 minutes, with the page automatically refreshed every 10 minutes)

About weather observations | Map of weather stations | Latest weather observations for TAS | Other Formats
Station Details ID: 091219 Name: SCOTTSDALE (WEST MINSTONE ROAD) Lat: -41.17 Lon: 147.49 Height: 197.5 m
Data from the previous 72 hours. | See also: Recent months at Scottsdale
Date/Time
EST
Temp
°C
App
Temp
°C
Dew
Point
Rel
Hum
%
Delta-T
°C
Wind Press
QNH
hPa
Press
MSL
hPa
Rain
since 9 am
mm
Dir
 
Spd
km/h
Gust
km/h
Spd
kts
Gust
kts
05/08:00pm 8.3 5.2 5.7 84 1.2 ENE 11 13 6 7 1023.2 - 0.0
05/07:30pm 8.6 5.4 5.3 80 1.5 NE 11 15 6 8 1023.0 - 0.0
05/07:00pm 9.0 5.5 5.5 79 1.6 NNE 13 17 7 9 1022.7 - 0.0
05/06:30pm 9.1 6.9 6.3 83 1.3 NNW 7 11 4 6 1022.4 - 0.0
05/06:00pm 9.3 6.3 5.8 79 1.6 NNW 11 15 6 8 1022.1 1022.5 0.0
05/05:30pm 9.5 5.7 5.8 78 1.7 N 15 19 8 10 1021.7 - 0.0
05/05:00pm 9.8 4.4 4.7 70 2.3 N 22 26 12 14 1021.1 - 0.0
05/04:30pm 10.2 3.6 5.9 74 2.0 NNE 30 35 16 19 1020.6 - 0.0
05/04:00pm 10.9 4.7 6.0 72 2.3 NE 28 37 15 20 1020.3 - 0.0
05/03:30pm 11.6 4.3 5.6 66 2.8 NE 33 43 18 23 1019.9 - 0.0
05/03:19pm 12.9 5.6 5.5 60 3.5 ENE 33 41 18 22 1019.8 - 0.0
05/03:00pm 14.5 11.2 -1.3 33 6.5 S 6 9 3 5 1019.8 1020.1 0.0
05/02:30pm 14.4 11.1 -1.4 33 6.5 WSW 6 9 3 5 1019.7 - 0.0
05/02:00pm 13.9 10.0 -1.2 35 6.2 SW 9 15 5 8 1019.6 - 0.0
05/01:30pm 14.0 9.8 -0.7 36 6.1 WSW 11 19 6 10 1019.6 - 0.0
05/01:00pm 14.1 10.5 0.5 39 5.8 WSW 9 15 5 8 1020.0 - 0.0
05/12:30pm 13.5 9.1 0.6 41 5.5 SW 13 20 7 11 1020.3 - 0.0
05/12:00pm 13.0 8.9 -0.2 40 5.5 SSW 11 19 6 10 1020.3 1020.6 0.0
05/11:30am 11.6 6.8 -0.1 44 4.8 SSW 15 24 8 13 1020.5 - 0.0
05/11:00am 11.9 7.1 0.4 45 4.8 SSW 15 24 8 13 1020.5 - 0.0
05/10:30am 11.3 7.0 1.1 49 4.3 SSW 13 22 7 12 1020.7 - 0.0
05/10:00am 11.8 9.2 3.0 55 3.9 SSW 6 9 3 5 1020.7 - 0.0
05/09:30am 10.6 8.2 4.1 64 2.9 SW 6 9 3 5 1020.7 - 0.0
05/09:00am 9.3 8.1 4.6 72 2.1 CALM 0 0 0 0 1020.7 1021.0 0.0
05/08:30am 8.3 6.0 4.7 78 1.6 SE 6 9 3 5 1020.4 - 0.0
05/08:00am 7.3 4.4 4.6 83 1.2 SSE 9 13 5 7 1020.3 - 0.0
05/07:30am 5.4 2.4 4.0 91 0.6 SSE 9 13 5 7 1019.9 - 0.0
05/07:00am 4.0 2.1 3.0 93 0.4 SSE 2 9 1 5 1019.5 - 0.0
05/06:30am 3.2 -0.1 2.7 96 0.2 ESE 9 11 5 6 1019.1 - 0.0
05/06:00am 2.8 -1.0 2.0 94 0.3 ESE 11 13 6 7 1018.7 1019.0 0.0
05/05:30am 2.5 -0.9 2.0 96 0.2 E 9 9 5 5 1018.4 - 0.0
05/05:00am 1.9 -1.0 1.4 96 0.2 E 6 9 3 5 1018.1 - 0.0
05/04:30am 3.0 -0.4 2.0 93 0.4 E 9 11 5 6 1017.6 - 0.0
05/04:00am 4.2 1.5 2.7 90 0.6 SSE 6 9 3 5 1017.3 - 0.0
05/03:30am 5.7 2.9 3.3 84 1.0 SSW 7 9 4 5 1017.2 - 0.0
05/03:00am 6.2 2.3 3.6 83 1.1 W 13 24 7 13 1017.0 1017.3 0.0
05/02:30am 6.6 2.4 3.8 82 1.2 WNW 15 20 8 11 1017.2 - 0.0
05/02:00am 6.6 2.0 3.8 82 1.2 WNW 17 20 9 11 1017.6 - 0.0
05/01:30am 6.8 1.7 3.3 78 1.5 W 19 24 10 13 1017.6 - 0.0
05/01:00am 6.5 1.8 3.4 80 1.3 W 17 22 9 12 1017.6 - 0.0
05/12:30am 6.9 1.9 3.6 79 1.4 WNW 19 24 10 13 1017.4 - 0.0
05/12:00am 7.1 2.4 3.4 77 1.6 WNW 17 22 9 12 1017.4 1017.8 0.0
 
Date/Time
EST
Temp
°C
App
Temp
°C
Dew
Point
Rel
Hum
%
Delta-T
°C
Wind Press
QNH
hPa
Press
MSL
hPa
Rain
since 9 am
mm
Dir
 
Spd
km/h
Gust
km/h
Spd
kts
Gust
kts
04/11:30pm 7.1 3.1 2.8 74 1.8 WNW 13 19 7 10 1017.6 - 0.0
04/11:00pm 7.3 2.5 2.5 71 2.0 WNW 17 20 9 11 1017.8 - 0.0
04/10:30pm 7.1 3.0 2.3 71 2.0 WNW 13 19 7 10 1017.8 - 0.0
04/10:00pm 7.9 4.2 2.2 67 2.4 WNW 11 15 6 8 1017.8 - 0.0
04/09:30pm 7.5 3.8 2.2 69 2.2 NW 11 13 6 7 1017.7 - 0.0
04/09:00pm 8.2 5.2 2.3 66 2.5 NW 7 11 4 6 1017.6 1018.0 0.0
04/08:30pm 8.6 5.3 2.5 65 2.6 WNW 9 11 5 6 1017.5 - 0.0
04/08:00pm 8.8 5.1 2.4 64 2.7 WNW 11 17 6 9 1017.2 - 0.0
04/07:30pm 9.6 5.1 2.1 59 3.2 WNW 15 20 8 11 1017.1 - 0.0
04/07:00pm 9.7 5.5 1.9 58 3.3 WNW 13 19 7 10 1017.0 - 0.0
04/06:30pm 9.9 6.2 2.2 59 3.3 WNW 11 17 6 9 1016.8 - 0.0
04/06:00pm 10.7 6.2 2.4 56 3.6 W 15 20 8 11 1016.3 1016.6 0.0
04/05:30pm 11.4 6.6 2.4 54 3.9 WNW 17 28 9 15 1016.0 - 0.0
04/05:00pm 12.4 6.5 1.8 48 4.6 W 22 35 12 19 1015.8 - 0.0
04/04:30pm 13.3 8.1 2.5 48 4.8 WNW 19 33 10 18 1015.4 - 0.0
04/04:00pm 13.8 9.8 5.1 55 4.1 WNW 15 24 8 13 1015.5 - 0.0
04/03:30pm 13.8 9.6 5.6 57 3.9 WNW 17 28 9 15 1015.6 - 0.0
04/03:00pm 13.4 9.0 4.8 56 4.0 NW 17 24 9 13 1015.8 1016.1 0.0
04/02:30pm 13.7 8.7 3.6 50 4.6 W 19 37 10 20 1016.0 - 0.0
04/02:00pm 13.2 7.9 3.2 50 4.5 W 20 32 11 17 1016.3 - 0.0
04/01:30pm 12.9 7.1 2.5 49 4.6 WNW 22 33 12 18 1016.5 - 0.0
04/01:00pm 12.3 6.5 2.2 50 4.4 WNW 22 33 12 18 1016.8 - 0.0
04/12:30pm 12.4 6.4 0.8 45 4.9 W 22 30 12 16 1017.2 - 0.0
04/12:00pm 12.3 5.9 1.0 46 4.8 W 24 35 13 19 1017.7 1018.1 0.0
04/11:30am 12.4 7.8 3.5 54 4.0 W 17 24 9 13 1018.2 - 0.0
04/11:00am 12.0 8.6 3.8 57 3.7 W 11 17 6 9 1018.6 - 0.0
04/10:30am 10.8 7.6 4.9 67 2.7 W 11 19 6 10 1019.0 - 0.0
04/10:00am 10.1 7.6 6.7 79 1.6 NW 9 17 5 9 1019.4 - 0.0
04/09:30am 10.3 7.2 7.2 81 1.5 NNW 13 15 7 8 1019.7 - 0.0
04/09:00am 8.6 6.5 6.7 88 0.9 NNW 7 11 4 6 1020.1 1020.4 0.2
04/08:30am 8.1 7.3 6.4 89 0.8 CALM 0 0 0 0 1020.4 - 0.2
04/08:00am 7.4 6.4 5.6 88 0.8 CALM 0 0 0 0 1020.4 - 0.2
04/07:30am 7.0 6.0 5.4 89 0.7 CALM 0 0 0 0 1020.3 - 0.2
04/07:00am 6.8 5.7 5.0 88 0.8 CALM 0 0 0 0 1020.1 - 0.2
04/06:30am 6.9 5.3 4.4 84 1.1 W 2 7 1 4 1020.1 - 0.2
04/06:00am 7.0 4.6 4.2 82 1.2 NNW 6 9 3 5 1020.0 1020.3 0.0
04/05:30am 6.9 4.4 3.9 81 1.3 SW 6 7 3 4 1020.2 - 0.0
04/05:00am 6.8 5.4 3.8 81 1.3 CALM 0 0 0 0 1020.1 - 0.0
04/04:30am 6.7 5.4 4.2 84 1.1 CALM 0 0 0 0 1020.0 - 0.0
04/04:00am 6.5 4.1 4.4 86 0.9 WNW 6 7 3 4 1019.8 - 0.0
04/03:30am 6.5 4.2 4.7 88 0.8 WNW 6 7 3 4 1019.8 - 0.0
04/03:00am 6.4 4.1 4.8 89 0.7 WNW 6 7 3 4 1020.0 1020.3 0.0
04/02:30am 6.1 3.7 4.5 89 0.7 W 6 7 3 4 1019.8 - 0.0
04/02:00am 5.7 3.7 4.5 92 0.5 WNW 4 6 2 3 1020.1 - 0.0
04/01:30am 5.3 3.2 4.1 92 0.5 W 4 6 2 3 1020.1 - 0.0
04/01:00am 5.2 2.7 4.0 92 0.5 WNW 6 9 3 5 1020.2 - 0.0
04/12:30am 4.5 3.0 3.0 90 0.6 CALM 0 0 0 0 1020.0 - 0.0
04/12:00am 5.6 3.2 4.2 91 0.6 SSW 6 7 3 4 1020.0 1020.3 0.0
 
Date/Time
EST
Temp
°C
App
Temp
°C
Dew
Point
Rel
Hum
%
Delta-T
°C
Wind Press
QNH
hPa
Press
MSL
hPa
Rain
since 9 am
mm
Dir
 
Spd
km/h
Gust
km/h
Spd
kts
Gust
kts
03/11:30pm 4.9 2.3 4.0 94 0.4 SSE 7 9 4 5 1020.0 - 0.0
03/11:00pm 4.3 2.9 3.6 95 0.3 CALM 0 0 0 0 1020.0 - 0.0
03/10:30pm 4.5 3.2 4.3 99 0.1 CALM 0 0 0 0 1019.9 - 0.0
03/10:00pm 5.5 3.6 4.8 95 0.3 WSW 4 7 2 4 1019.8 - 0.0
03/09:30pm 7.0 5.4 6.3 95 0.3 WNW 4 6 2 3 1019.5 - 0.0
03/09:00pm 8.0 5.9 6.5 90 0.7 W 7 9 4 5 1019.2 1019.5 0.0
03/08:30pm 7.5 5.2 4.8 83 1.2 W 6 9 3 5 1019.0 - 0.0
03/08:00pm 6.4 3.6 3.3 80 1.3 WSW 7 9 4 5 1018.6 - 0.0
03/07:30pm 6.7 5.4 5.8 94 0.4 N 2 6 1 3 1018.2 - 0.0
03/07:00pm 7.9 5.5 6.8 93 0.5 N 9 15 5 8 1017.7 - 0.0
03/06:30pm 9.2 7.2 6.9 85 1.1 NE 7 13 4 7 1017.3 - 0.0
03/06:00pm 9.8 7.5 7.5 85 1.1 NE 9 24 5 13 1016.7 1017.0 0.0
03/05:30pm 9.9 6.4 7.4 84 1.2 N 15 20 8 11 1016.0 - 0.0
03/05:00pm 10.8 7.0 7.5 80 1.6 N 17 20 9 11 1015.3 - 0.0
03/04:30pm 11.9 9.2 7.2 73 2.3 N 11 17 6 9 1014.7 - 0.0
03/04:00pm 11.6 8.4 6.8 72 2.3 N 13 19 7 10 1014.3 - 0.0
03/03:30pm 12.4 9.1 6.3 66 2.9 N 13 17 7 9 1013.8 - 0.0
03/03:00pm 13.2 10.8 6.8 65 3.1 NNE 9 13 5 7 1013.5 1013.8 0.0
03/02:30pm 13.2 10.5 7.3 67 2.9 NNE 11 15 6 8 1013.1 - 0.0
03/02:00pm 13.5 9.7 1.6 44 5.2 S 11 19 6 10 1012.5 - 0.0
03/01:30pm 14.8 10.8 2.9 44 5.4 WSW 13 19 7 10 1012.2 - 0.0
03/01:00pm 14.1 9.7 2.8 46 5.1 S 15 22 8 12 1012.2 - 0.0
03/12:30pm 13.7 8.5 2.2 45 5.1 S 19 28 10 15 1012.1 - 0.0
03/12:00pm 12.4 7.5 2.1 49 4.5 SSW 17 24 9 13 1012.1 1012.4 0.0
03/11:30am 12.6 7.3 3.0 52 4.3 SSW 20 28 11 15 1012.1 - 0.0
03/11:00am 12.9 6.8 2.8 50 4.5 S 24 35 13 19 1011.7 - 0.0
03/10:30am 13.0 8.1 4.3 55 4.0 SSW 19 32 10 17 1011.2 - 0.0
03/10:00am 12.8 7.9 4.1 55 4.0 SSW 19 32 10 17 1010.9 - 0.0
03/09:30am 12.9 7.6 5.0 58 3.7 S 22 30 12 16 1010.7 - 0.0
03/09:00am 13.1 11.7 5.5 60 3.6 WSW 2 11 1 6 1010.5 1010.8 0.0
03/08:30am 11.3 8.6 3.7 59 3.4 WSW 7 13 4 7 1010.3 - 0.0
03/08:00am 9.5 7.0 4.6 71 2.2 E 7 9 4 5 1009.9 - 0.0
03/07:30am 9.7 5.3 4.9 72 2.2 SSE 17 20 9 11 1009.4 - 0.0
03/07:00am 7.8 5.3 4.9 82 1.3 S 7 11 4 6 1008.8 - 0.0
03/06:30am 7.2 3.5 4.7 84 1.1 SSE 13 15 7 8 1008.6 - 0.0
03/06:00am 6.8 3.9 4.8 87 0.9 E 9 11 5 6 1008.0 1008.2 0.0
03/05:30am 6.0 3.4 4.4 89 0.7 ESE 7 11 4 6 1007.9 - 0.0
03/05:00am 6.6 4.1 4.6 87 0.9 SE 7 11 4 6 1007.6 - 0.0
03/04:30am 6.9 4.4 4.9 87 0.9 SE 7 9 4 5 1007.3 - 0.0
03/04:00am 6.1 4.2 4.7 91 0.6 SW 4 9 2 5 1007.5 - 0.0
03/03:30am 6.4 3.4 4.1 85 1.0 SSE 9 11 5 6 1007.2 - 0.0
03/03:00am 6.6 3.7 4.6 87 0.9 S 9 11 5 6 1007.9 1008.1 0.0
03/02:30am 6.9 5.7 4.6 85 1.0 CALM 0 2 0 1 1008.1 - 0.0
03/02:00am 7.2 6.0 4.7 84 1.1 CALM 0 0 0 0 1008.4 - 0.0
03/01:30am 7.7 5.3 4.5 80 1.4 SSE 6 7 3 4 1008.6 - 0.0
03/01:00am 6.8 5.0 5.2 89 0.7 WSW 4 7 2 4 1008.9 - 0.0
03/12:30am 7.3 5.1 5.1 86 1.0 S 6 9 3 5 1008.8 - 0.0
03/12:00am 7.5 5.2 4.8 83 1.2 SSW 6 7 3 4 1008.9 1009.1 0.0
 
Date/Time
EST
Temp
°C
App
Temp
°C
Dew
Point
Rel
Hum
%
Delta-T
°C
Wind Press
QNH
hPa
Press
MSL
hPa
Rain
since 9 am
mm
Dir
 
Spd
km/h
Gust
km/h
Spd
kts
Gust
kts
02/11:30pm 7.4 5.0 5.2 86 1.0 S 7 9 4 5 1009.3 - 0.0
02/11:00pm 7.1 4.4 5.8 91 0.6 SSE 9 11 5 6 1009.6 - 0.0
02/10:30pm 6.9 4.2 5.8 93 0.5 SSE 9 13 5 7 1009.8 - 0.0
02/10:00pm 7.0 3.6 5.9 93 0.5 SSE 13 15 7 8 1010.1 - 0.0
02/09:30pm 6.4 3.7 5.7 95 0.3 SSE 9 13 5 7 1010.4 - 0.0
02/09:00pm 5.4 4.2 4.7 95 0.3 CALM 0 0 0 0 1010.3 1010.6 0.0
02/08:30pm 4.7 3.4 4.2 97 0.2 CALM 0 0 0 0 1009.9 - 0.0

Other Formats:

Comma delimited format used in spreadsheet applications
http://www.bom.gov.au/fwo/IDT60801/IDT60801.94972.axf

JavaScript Object Notation format (JSON) in row-major order
http://www.bom.gov.au/fwo/IDT60801/IDT60801.94972.json